Flight Track Log - Related Links

Times and Time Zones

All times are in EDT time to prevent confusion due to time zone crossing. See the JUS205 flight status page for this flight to view local times or setup timezone preferences in your user account.

Time Position Orientation Groundspeed Altitude Reporting Facility
EDT Latitude Longitude Course Direction KTS MPH feet Rate Location/Type
Fri 07:00:52 AM 28.3514 -99.0225 21° North 380 437 21,100  Level Houston Center
Fri 07:01:52 AM 28.4528 -98.9750 22° Northeast 388 447 22,300 1,140 Climbing Houston Center
Fri 07:02:53 AM 28.5583 -98.9336 19° North 397 457 23,400 1,140 Climbing Houston Center
Fri 07:03:00 AM 28.3104 -99.1235 21° North  Level Estimated
Fri 07:03:53 AM 28.6836 -98.8772 22° Northeast 407 468 24,600  Level Houston Center
Fri 07:04:00 AM 28.3746 -99.0950 21° North  Level Estimated
Fri 07:04:54 AM 28.7925 -98.8353 19° North 411 473 25,700  Level Houston Center
Fri 07:05:00 AM 28.4387 -99.0664 21° North  Level Estimated
Fri 07:05:54 AM 28.9003 -98.7847 22° Northeast 418 481 26,200  Level Houston Center
Fri 07:06:00 AM 28.5029 -99.0378 21° North  Level Estimated
Fri 07:06:55 AM 29.0122 -98.7383 20° North 426 490 26,900  Level Houston Center
Fri 07:07:55 AM 29.1250 -98.6897 21° North 433 498 27,700 800 Climbing Houston Center
Fri 07:08:55 AM 29.2361 -98.6364 23° Northeast 433 498 28,500 744 Climbing Houston Center
Fri 07:09:56 AM 29.3522 -98.5978 16° North 433 498 29,200 694 Climbing Houston Center
Fri 07:10:56 AM 29.4669 -98.5542 18° North 433 498 29,900 645 Climbing Houston Center
Fri 07:11:57 AM 29.5875 -98.5050 20° North 445 512 30,500 639 Climbing Houston Center
Fri 07:12:58 AM 29.7078 -98.4681 15° North 444 511 31,200 843 Climbing Houston Center
Fri 07:13:58 AM 29.8214 -98.4189 21° North 433 498 32,200 744 Climbing Houston Center
Fri 07:14:59 AM 29.9458 -98.3756 17° North 434 499 32,700 645 Climbing Houston Center
Fri 07:15:59 AM 30.0617 -98.3336 17° North 435 501 33,500 744 Climbing Houston Center
Fri 07:17:00 AM 30.1747 -98.2850 20° North 434 499 34,200 492 Climbing Houston Center
Fri 07:18:01 AM 30.2897 -98.2506 15° North 426 490 34,500 397 Climbing Houston Center
Fri 07:19:01 AM 30.3900 -98.2100 19° North 434 499 35,000 248 Climbing Houston Center
Fri 07:20:02 AM 30.5069 -98.1644 19° North 437 503 35,000  Level Houston Center
Fri 07:21:03 AM 30.6261 -98.1267 15° North 437 503 35,000  Level Houston Center
Fri 07:22:03 AM 30.7428 -98.0758 21° North 440 506 35,000 -248 Level Houston Center
Fri 07:23:04 AM 30.8617 -98.0364 16° North 439 505 34,500 -787 Descending Houston Center
Fri 07:24:05 AM 30.9822 -97.9889 19° North 447 514 33,400 -1,091 Descending Houston Center
Fri 07:25:05 AM 31.1036 -97.9397 19° North 453 521 32,300 -1,240 Descending Houston Center
Fri 07:26:06 AM 31.2294 -97.8981 16° North 459 528 30,900 -1,377 Descending Houston Center
Fri 07:27:07 AM 31.3539 -97.8406 22° Northeast 470 541 29,500 -1,983 Descending Houston Center
Fri 07:28:07 AM 31.4792 -97.7983 16° North 463 533 26,900 -2,777 Descending Houston Center
Fri 07:29:08 AM 31.5958 -97.7611 15° North 436 502 23,900 -2,951 Descending Houston Center
Fri 07:30:09 AM 31.7086 -97.7108 21° North 431 496 20,900 -3,295 Descending Houston Center
Fri 07:31:10 AM 31.8150 -97.6744 16° North 402 463 17,200 -3,917 Descending Houston Center
Fri 07:32:10 AM 31.9133 -97.6378 18° North 373 429 13,000 -3,067 Descending Houston Center
Fri 07:33:25 AM 32.0253 -97.5922 19° North 331 381 10,300 -2,178 Descending Fort Worth Center
Fri 07:34:25 AM 32.0983 -97.5631 19° North 289 333 8,100 -2,350 Descending Fort Worth Center
Fri 07:35:25 AM 32.1736 -97.5311 20° North 277 319 5,600 -1,550 Descending Fort Worth Center
Fri 07:36:25 AM 32.2383 -97.5067 18° North 266 306 5,000 -400 Descending Fort Worth Center
Fri 07:37:25 AM 32.2947 -97.4747 26° Northeast 232 267 4,800 -550 Descending Fort Worth Center
Fri 07:38:25 AM 32.3197 -97.4183 62° Northeast 190 219 3,900 -900 Descending Fort Worth Center
Fri 07:39:25 AM 32.3469 -97.3642 59° Northeast 190 219 3,000 -450 Descending Fort Worth Center
Fri 07:40:25 AM 32.3658 -97.3225 62° Northeast 163 188 3,000  Level Fort Worth Center
Fri 07:41:25 AM 32.3844 -97.2781 64° Northeast 153 176 3,000  Level Fort Worth Center
Fri 07:42:25 AM 32.4094 -97.2214 62° Northeast 168 193 3,000  Level Fort Worth Center
Fri 07:43:25 AM 32.4281 -97.1747 65° Northeast 173 199 3,000 -400 Level Fort Worth Center
Fri 07:44:25 AM 32.4553 -97.1206 59° Northeast 173 199 2,200 -350 Descending Fort Worth Center
Fri 07:45:25 AM 32.4947 -97.1031 21° North 159 183 2,300  Climbing Fort Worth Center
Fri 07:46:25 AM 32.5428 -97.0856 17° North 152 175 2,200 -250 Descending Fort Worth Center
Fri 07:47:25 AM 32.5783 -97.0781 10° North 157 181 1,800 -450 Descending Fort Worth Center
Fri 07:48:25 AM 32.6181 -97.0853 351° North 135 155 1,300 -300 Descending Fort Worth Center
Fri 07:49:25 AM 32.6556 -97.0878 357° North 127 146 1,200 -100 Descending Fort Worth Center

Login

Don't have an account? Register now (free) for customized features, flight alerts, and more!